Time;durP1;ratioP1;P1;durP2;ratioP2;P2;SDS_P1;SDS_P2;PMS_P1;PMS_P2;Temp;Humidity;BMP_temperature;BMP_pressure;BME280_temperature;BME280_humidity;BME280_pressure;Samples;Min_cycle;Max_cycle;Signal;HPM_P1;HPM_P2
2022/06/28 00:01:23;;;;;;;5.15;2.83;;;;;;;17.05;69.04;100449.88;5012418;28;20072;-55
2022/06/28 00:04:07;;;;;;;4.00;2.40;;;;;;;17.04;69.18;100453.41;5017883;28;20052;-56
2022/06/28 00:06:53;;;;;;;6.70;2.70;;;;;;;17.02;69.06;100449.91;5032686;28;20041;-56
2022/06/28 00:09:37;;;;;;;5.72;2.20;;;;;;;17.02;69.12;100449.91;5032856;28;20057;-56
2022/06/28 00:12:21;;;;;;;3.45;2.42;;;;;;;17.01;68.95;100445.56;5032794;28;20126;-56
2022/06/28 00:18:12;;;;;;;5.38;2.53;;;;;;;16.99;68.85;100444.69;5036059;28;20424;-56
2022/06/28 00:20:56;;;;;;;4.63;2.30;;;;;;;16.98;69.00;100444.66;5036495;28;20092;-55
2022/06/28 00:23:42;;;;;;;7.78;3.00;;;;;;;16.98;69.00;100450.78;5021193;28;20418;-55
2022/06/28 00:26:26;;;;;;;4.47;2.63;;;;;;;16.97;69.05;100451.66;5021356;28;20052;-55
2022/06/28 00:29:10;;;;;;;3.38;2.38;;;;;;;16.97;68.83;100449.06;5021123;28;20068;-55
2022/06/28 00:31:54;;;;;;;4.55;2.42;;;;;;;16.95;68.88;100448.19;5035705;28;20056;-56
2022/06/28 00:34:38;;;;;;;8.00;2.58;;;;;;;16.95;69.02;100448.19;5036416;28;20052;-56
2022/06/28 00:37:22;;;;;;;5.80;2.78;;;;;;;16.94;68.82;100446.41;5036111;28;20463;-55
2022/06/28 00:40:07;;;;;;;8.15;2.92;;;;;;;16.93;68.96;100443.81;5020699;28;20040;-55
2022/06/28 00:42:51;;;;;;;7.80;2.80;;;;;;;16.92;68.75;100445.53;5020985;28;20084;-55
2022/06/28 00:45:36;;;;;;;7.63;2.40;;;;;;;16.92;68.80;100450.78;5035981;28;20069;-55
2022/06/28 00:48:21;;;;;;;4.28;2.50;;;;;;;16.90;68.69;100449.91;5035461;28;20209;-55
2022/06/28 00:51:08;;;;;;;6.13;2.20;;;;;;;16.90;68.53;100452.53;5020605;28;20404;-56
2022/06/28 00:53:53;;;;;;;4.57;2.40;;;;;;;16.89;68.50;100451.66;5020923;28;20087;-55
2022/06/28 00:56:38;;;;;;;5.00;2.10;;;;;;;16.89;68.46;100453.44;5020644;28;20084;-57
2022/06/28 00:59:22;;;;;;;7.00;2.47;;;;;;;16.88;68.57;100449.06;5036112;28;20080;-57
2022/06/28 01:02:06;;;;;;;5.18;2.55;;;;;;;16.87;68.41;100456.03;5035156;28;20095;-55
2022/06/28 01:04:50;;;;;;;3.67;2.10;;;;;;;16.85;68.55;100452.53;5035232;28;20479;-55
2022/06/28 01:07:34;;;;;;;5.25;2.25;;;;;;;16.85;68.66;100451.69;5035274;28;20176;-56
2022/06/28 01:10:18;;;;;;;8.35;2.83;;;;;;;16.83;68.47;100449.06;5020667;28;20134;-55
2022/06/28 01:13:04;;;;;;;3.22;2.10;;;;;;;16.83;68.40;100448.19;5035377;28;20083;-56
2022/06/28 01:15:48;;;;;;;8.20;2.10;;;;;;;16.82;68.77;100446.44;5019840;28;20048;-56
2022/06/28 01:18:33;;;;;;;5.50;2.60;;;;;;;16.81;68.20;100447.31;5035332;28;20080;-57
2022/06/28 01:21:18;;;;;;;6.75;2.67;;;;;;;16.80;68.36;100442.97;5020198;28;20541;-55
2022/06/28 01:24:03;;;;;;;7.00;2.90;;;;;;;16.79;68.37;100451.69;5020153;28;20072;-55
2022/06/28 01:26:47;;;;;;;5.43;2.67;;;;;;;16.79;68.39;100452.59;5019308;28;20044;-55
2022/06/28 01:29:31;;;;;;;5.20;3.03;;;;;;;16.79;68.42;100452.59;5020441;28;20056;-55
2022/06/28 01:32:15;;;;;;;;;;;;;;;16.77;68.25;100450.81;5020440;28;20079;-55
2022/06/28 01:35:01;;;;;;;3.65;2.40;;;;;;;16.75;68.25;100454.31;5019903;28;19919;-55
2022/06/28 01:37:48;;;;;;;6.80;2.67;;;;;;;16.75;68.04;100451.69;5020165;28;20052;-56
2022/06/28 01:40:32;;;;;;;6.55;2.80;;;;;;;16.74;68.15;100449.09;5034494;28;20053;-56
2022/06/28 01:43:17;;;;;;;7.10;2.63;;;;;;;16.74;68.22;100456.94;5019569;28;20056;-55
2022/06/28 01:46:05;;;;;;;5.65;2.50;;;;;;;16.71;67.92;100455.22;5019709;28;20123;-55
2022/06/28 01:48:49;;;;;;;5.88;3.05;;;;;;;16.73;68.21;100468.28;5020154;28;20060;-57
2022/06/28 01:51:33;;;;;;;5.25;2.67;;;;;;;16.72;68.13;100456.97;5034153;28;20468;-56
2022/06/28 01:54:17;;;;;;;4.82;2.63;;;;;;;16.71;68.00;100460.44;5034747;28;20091;-55
2022/06/28 01:57:02;;;;;;;4.38;2.95;;;;;;;16.70;68.05;100457.81;5019590;28;20048;-56
2022/06/28 01:59:47;;;;;;;7.90;2.70;;;;;;;16.70;68.14;100458.72;5019999;28;20123;-56
2022/06/28 02:02:30;;;;;;;4.78;2.67;;;;;;;16.70;67.94;100463.06;5019493;28;20107;-55
2022/06/28 02:05:14;;;;;;;4.60;2.38;;;;;;;16.69;67.80;100471.78;5034378;28;20052;-55
2022/06/28 02:07:59;;;;;;;8.27;2.60;;;;;;;16.68;67.62;100467.41;5034700;28;20140;-56
2022/06/28 02:10:43;;;;;;;7.82;2.63;;;;;;;16.66;67.79;100459.59;5034298;28;20535;-56
2022/06/28 02:13:27;;;;;;;5.18;2.80;;;;;;;16.66;68.00;100464.81;5019348;28;20040;-55
2022/06/28 02:16:11;;;;;;;7.07;2.55;;;;;;;16.64;67.91;100469.19;5034443;28;20053;-57
2022/06/28 02:18:55;;;;;;;4.80;2.28;;;;;;;16.63;67.88;100462.19;5033751;28;20557;-57
2022/06/28 02:21:42;;;;;;;5.07;2.47;;;;;;;16.63;67.75;100475.28;5034245;28;20044;-57
2022/06/28 02:24:26;;;;;;;9.65;3.42;;;;;;;16.62;67.52;100473.53;5019458;28;20053;-56
2022/06/28 02:27:10;;;;;;;7.95;2.50;;;;;;;16.60;67.83;100470.06;5033556;28;20515;-57
2022/06/28 02:29:54;;;;;;;7.10;2.80;;;;;;;16.60;67.72;100472.66;5033713;28;20565;-57
2022/06/28 02:32:38;;;;;;;;;;;;;;;16.58;67.64;100479.69;5019440;28;20420;-56
2022/06/28 02:41:44;;;;;;;8.15;3.22;;;;;;;16.54;67.64;100484.03;5012302;28;20068;-57
2022/06/28 02:44:28;;;;;;;4.40;2.65;;;;;;;16.52;67.81;100480.53;5033673;28;20041;-57
2022/06/28 02:47:12;;;;;;;3.42;2.33;;;;;;;16.52;67.56;100484.91;5033999;28;20068;-56
2022/06/28 02:49:56;;;;;;;6.55;3.17;;;;;;;16.52;67.57;100490.16;5033954;28;20052;-59
2022/06/28 02:52:40;;;;;;;12.77;3.13;;;;;;;16.51;67.65;100494.47;5033726;28;20048;-57
2022/06/28 02:55:25;;;;;;;7.22;2.83;;;;;;;16.51;67.57;100497.09;5033126;28;20050;-57
2022/06/28 02:58:08;;;;;;;;;;;;;;;16.50;67.63;100499.72;5034001;28;20091;-57
2022/06/28 03:00:53;;;;;;;7.13;3.30;;;;;;;16.49;67.66;100511.97;5033674;28;19939;-57
2022/06/28 03:03:37;;;;;;;6.72;3.00;;;;;;;16.49;67.48;100517.19;5018103;28;20124;-57
2022/06/28 03:06:21;;;;;;;5.88;2.70;;;;;;;16.49;67.56;100517.19;5033535;28;20048;-57
2022/06/28 03:09:05;;;;;;;8.10;2.60;;;;;;;16.48;67.61;100515.44;5032938;28;20110;-57
2022/06/28 03:11:49;;;;;;;7.57;2.90;;;;;;;16.48;67.66;100523.28;5033175;28;20092;-56
2022/06/28 03:14:33;;;;;;;10.00;3.03;;;;;;;16.47;67.57;100520.66;5032942;28;20451;-56
2022/06/28 03:17:17;;;;;;;12.10;3.42;;;;;;;16.47;67.41;100523.28;5033364;28;20525;-57
2022/06/28 03:20:01;;;;;;;5.78;3.00;;;;;;;16.46;67.21;100519.81;5033823;28;20184;-57
2022/06/28 03:22:45;;;;;;;5.70;2.72;;;;;;;16.47;67.41;100520.66;5033472;28;20056;-56
2022/06/28 03:25:28;;;;;;;6.70;3.03;;;;;;;16.47;67.55;100528.50;5033549;28;20049;-56
2022/06/28 03:28:13;;;;;;;7.78;2.83;;;;;;;16.44;67.43;100525.00;5018305;28;20484;-55
2022/06/28 03:30:56;;;;;;;7.15;3.00;;;;;;;16.44;67.39;100521.53;5033454;28;20452;-55
2022/06/28 03:33:41;;;;;;;6.30;2.90;;;;;;;16.43;67.62;100527.66;5018163;28;20508;-55
2022/06/28 03:36:25;;;;;;;7.25;2.83;;;;;;;16.43;67.49;100532.88;5032720;28;20412;-55
2022/06/28 03:39:09;;;;;;;9.18;3.30;;;;;;;16.41;67.36;100535.50;5033008;28;20088;-56
2022/06/28 03:41:53;;;;;;;8.02;2.83;;;;;;;16.42;67.35;100541.59;5033420;28;20095;-55
2022/06/28 03:44:37;;;;;;;7.80;2.80;;;;;;;16.40;67.24;100540.72;5033238;28;20057;-55
2022/06/28 03:47:21;;;;;;;8.57;3.42;;;;;;;16.40;67.32;100545.94;5032996;28;20103;-57
2022/06/28 03:50:05;;;;;;;8.82;3.17;;;;;;;16.39;67.44;100545.09;5033409;28;20052;-55
2022/06/28 03:52:49;;;;;;;11.27;3.58;;;;;;;16.39;66.81;100552.94;5036697;28;20107;-56
2022/06/28 03:55:33;;;;;;;10.05;3.40;;;;;;;16.37;67.31;100551.16;5022180;28;20104;-56
2022/06/28 03:58:17;;;;;;;;;;;;;;;16.37;67.09;100559.91;5036771;28;20047;-55
2022/06/28 04:01:02;;;;;;;8.40;3.22;;;;;;;16.37;67.46;100553.78;5036503;28;20010;-56
2022/06/28 04:03:46;;;;;;;9.35;3.40;;;;;;;16.37;67.27;100551.16;5036784;28;20056;-55
2022/06/28 04:06:30;;;;;;;8.45;3.80;;;;;;;16.36;67.25;100547.69;5036331;28;20091;-55
2022/06/28 04:09:14;;;;;;;8.60;3.05;;;;;;;16.35;67.29;100553.81;5036889;28;20064;-55
2022/06/28 04:11:58;;;;;;;14.55;3.70;;;;;;;16.34;67.36;100556.44;5022023;28;20076;-55
2022/06/28 04:14:42;;;;;;;9.32;3.22;;;;;;;16.32;67.23;100559.03;5036605;28;20120;-56
2022/06/28 04:17:26;;;;;;;9.20;3.00;;;;;;;16.32;67.01;100550.31;5021326;28;20095;-56
2022/06/28 04:20:11;;;;;;;11.32;3.38;;;;;;;16.32;67.20;100556.41;5036470;28;20453;-57
2022/06/28 04:22:56;;;;;;;9.52;3.50;;;;;;;16.31;67.04;100565.13;5021290;28;20531;-57
2022/06/28 04:25:39;;;;;;;5.70;2.75;;;;;;;16.29;67.37;100554.69;5036411;28;20455;-57
2022/06/28 04:28:24;;;;;;;8.40;4.15;;;;;;;16.29;67.12;100559.91;5035811;28;20084;-57
2022/06/28 04:31:09;;;;;;;9.43;3.38;;;;;;;16.29;67.19;100559.00;5036157;28;20047;-57
2022/06/28 04:33:53;;;;;;;8.63;3.20;;;;;;;16.28;67.14;100555.53;5021542;28;20053;-56
2022/06/28 04:36:36;;;;;;;16.50;4.53;;;;;;;16.28;67.36;100565.13;5036385;28;20095;-56
2022/06/28 04:39:20;;;;;;;10.60;3.55;;;;;;;16.27;67.30;100552.94;5021083;28;20571;-56
2022/06/28 04:42:05;;;;;;;8.52;3.45;;;;;;;16.28;67.35;100557.28;5036183;28;20053;-56
2022/06/28 04:44:50;;;;;;;7.90;2.90;;;;;;;16.29;67.24;100556.41;5035760;28;20056;-57
2022/06/28 04:47:36;;;;;;;5.90;3.47;;;;;;;16.29;67.34;100556.41;5021065;28;20063;-57
2022/06/28 04:50:20;;;;;;;12.38;3.88;;;;;;;16.30;67.33;100558.16;5035706;28;20083;-57
2022/06/28 04:53:03;;;;;;;10.00;3.00;;;;;;;16.30;67.44;100555.53;5035624;28;20055;-57
2022/06/28 04:55:48;;;;;;;6.78;3.50;;;;;;;16.29;67.27;100561.63;5035772;28;20052;-55
2022/06/28 04:58:33;;;;;;;10.00;3.67;;;;;;;16.31;67.30;100565.13;5035145;28;20049;-55
2022/06/28 05:01:17;;;;;;;8.40;3.17;;;;;;;16.31;67.37;100559.03;5035606;28;20095;-55
2022/06/28 05:04:01;;;;;;;8.98;3.33;;;;;;;16.32;67.48;100566.00;5035013;28;20548;-55
2022/06/28 05:06:45;;;;;;;6.18;3.50;;;;;;;16.31;67.48;100562.50;5035435;28;20110;-56
2022/06/28 05:09:29;;;;;;;8.02;3.20;;;;;;;16.31;67.52;100559.88;5035772;28;20136;-56
2022/06/28 05:12:13;;;;;;;11.23;3.65;;;;;;;16.31;67.53;100559.88;5035648;28;20045;-56
2022/06/28 05:14:57;;;;;;;4.90;3.15;;;;;;;16.32;67.47;100561.63;5035387;28;20055;-55
2022/06/28 05:17:41;;;;;;;7.35;3.47;;;;;;;16.32;67.16;100552.94;5020538;28;20475;-55
2022/06/28 05:20:25;;;;;;;8.68;3.28;;;;;;;16.32;67.38;100551.19;5035512;28;20512;-57
2022/06/28 05:23:09;;;;;;;8.60;3.10;;;;;;;16.31;67.30;100553.81;5020430;28;20045;-55
2022/06/28 05:25:53;;;;;;;7.75;3.15;;;;;;;16.31;67.34;100554.66;5035028;28;20052;-56
2022/06/28 05:28:37;;;;;;;6.93;3.45;;;;;;;16.32;67.51;100550.31;5019706;28;20626;-56
2022/06/28 05:31:21;;;;;;;5.50;2.95;;;;;;;16.33;67.03;100549.44;5035095;28;20424;-56
2022/06/28 05:34:05;;;;;;;7.15;3.30;;;;;;;16.33;67.47;100552.06;5020484;28;20397;-56
2022/06/28 05:36:49;;;;;;;3.92;2.53;;;;;;;16.33;67.40;100545.06;5034911;28;20053;-56
2022/06/28 05:39:33;;;;;;;6.78;3.17;;;;;;;16.33;67.59;100547.69;5034698;28;20049;-55
2022/06/28 05:42:17;;;;;;;7.75;3.10;;;;;;;16.32;67.47;100545.94;5035037;28;20095;-57
2022/06/28 05:45:02;;;;;;;6.20;3.05;;;;;;;16.31;67.60;100536.34;5034512;28;20052;-55
2022/06/28 05:47:46;;;;;;;5.72;3.50;;;;;;;16.30;67.55;100532.00;5035043;28;20410;-57
2022/06/28 05:50:30;;;;;;;12.30;3.50;;;;;;;16.31;67.51;100525.91;5034437;28;20052;-57
2022/06/28 05:53:14;;;;;;;8.00;3.60;;;;;;;16.31;67.56;100525.91;5019555;28;20581;-56
2022/06/28 05:55:58;;;;;;;6.00;3.40;;;;;;;16.32;67.65;100525.03;5034152;28;20053;-56
2022/06/28 05:58:42;;;;;;;7.30;3.53;;;;;;;16.32;67.69;100529.41;5034444;28;20040;-55
2022/06/28 06:01:26;;;;;;;7.70;2.83;;;;;;;16.28;67.43;100526.78;5034559;28;20523;-55
2022/06/28 06:04:10;;;;;;;7.55;4.00;;;;;;;16.28;67.63;100529.38;5034346;28;20570;-55
2022/06/28 06:06:54;;;;;;;5.65;3.50;;;;;;;16.30;67.62;100532.00;5034171;28;20417;-55
2022/06/28 06:09:42;;;;;;;12.55;3.40;;;;;;;16.30;67.27;100534.59;5034127;28;20129;-55
2022/06/28 06:12:26;;;;;;;4.65;2.83;;;;;;;16.29;67.41;100530.25;5019548;28;20048;-55
2022/06/28 06:15:10;;;;;;;4.07;2.53;;;;;;;16.29;67.42;100540.72;5033794;28;20051;-56
2022/06/28 06:17:53;;;;;;;5.35;2.80;;;;;;;16.29;67.74;100546.81;5034092;28;20057;-57
2022/06/28 06:20:37;;;;;;;5.35;2.88;;;;;;;16.30;67.61;100537.22;5034194;28;20096;-56
2022/06/28 06:23:21;;;;;;;7.35;2.95;;;;;;;16.30;67.53;100542.47;5033628;28;20048;-55
2022/06/28 06:26:05;;;;;;;5.05;2.70;;;;;;;16.29;67.60;100543.31;5034583;28;20049;-56
2022/06/28 06:28:49;;;;;;;6.28;3.13;;;;;;;16.30;67.40;100537.22;5019033;28;20048;-55
2022/06/28 06:31:33;;;;;;;5.03;2.33;;;;;;;16.31;67.48;100544.19;5034225;28;20056;-56
2022/06/28 06:34:17;;;;;;;5.60;3.05;;;;;;;16.32;67.36;100543.34;5033848;28;20049;-55
2022/06/28 06:37:01;;;;;;;4.95;2.40;;;;;;;16.29;67.49;100540.72;5033528;28;20056;-55
2022/06/28 06:39:44;;;;;;;4.15;2.40;;;;;;;16.29;67.48;100538.09;5018452;28;20057;-57
2022/06/28 06:42:28;;;;;;;5.85;2.63;;;;;;;16.29;67.31;100535.47;5019082;28;20052;-56
2022/06/28 06:45:12;;;;;;;6.57;2.78;;;;;;;16.29;67.61;100536.38;5018722;28;20048;-57
2022/06/28 06:47:56;;;;;;;7.10;2.55;;;;;;;16.28;67.47;100534.63;5034218;28;20500;-57
2022/06/28 06:50:41;;;;;;;5.72;2.35;;;;;;;16.29;67.47;100535.47;5019038;28;20500;-57
2022/06/28 06:53:25;;;;;;;8.25;2.85;;;;;;;16.29;67.55;100540.72;5033402;28;20461;-57
2022/06/28 06:56:09;;;;;;;6.07;2.50;;;;;;;16.30;67.39;100539.84;5033128;28;20091;-57
2022/06/28 06:58:53;;;;;;;3.88;2.22;;;;;;;16.30;67.57;100537.22;5033467;28;20084;-57
2022/06/28 07:01:37;;;;;;;5.43;2.47;;;;;;;16.28;67.43;100542.47;5033212;28;20075;-57
2022/06/28 07:04:22;;;;;;;5.00;2.50;;;;;;;16.30;67.32;100537.22;5033674;28;20060;-56
2022/06/28 07:07:06;;;;;;;4.32;2.65;;;;;;;16.31;67.41;100540.72;5033429;28;20052;-57
2022/06/28 07:09:51;;;;;;;5.78;2.20;;;;;;;16.30;67.42;100534.59;5033620;28;20048;-57
2022/06/28 07:12:34;;;;;;;4.30;2.30;;;;;;;16.31;67.41;100522.41;5018640;28;20056;-56
2022/06/28 07:15:19;;;;;;;4.97;2.35;;;;;;;16.31;67.34;100528.50;5033750;28;20111;-56
2022/06/28 07:18:04;;;;;;;7.03;2.30;;;;;;;16.32;67.45;100532.88;5033075;28;20052;-57
2022/06/28 07:20:47;;;;;;;;;;;;;;;16.31;67.22;100523.28;5033417;28;20103;-57
2022/06/28 07:23:31;;;;;;;4.40;2.00;;;;;;;16.29;67.40;100531.13;5033599;28;19975;-57
2022/06/28 07:26:18;;;;;;;3.45;2.17;;;;;;;16.29;67.28;100528.53;5035244;28;20458;-57
2022/06/28 07:29:03;;;;;;;3.53;1.98;;;;;;;16.30;67.24;100518.91;5022490;28;20144;-57
2022/06/28 07:31:48;;;;;;;8.85;2.15;;;;;;;16.31;67.28;100522.41;5022215;28;20052;-56
2022/06/28 07:34:32;;;;;;;10.68;2.70;;;;;;;16.31;67.38;100523.28;5037593;28;20060;-57
2022/06/28 07:37:16;;;;;;;4.82;2.38;;;;;;;16.33;67.42;100520.69;5037233;28;20044;-56
2022/06/28 07:40:00;;;;;;;5.57;2.13;;;;;;;16.34;67.36;100533.75;5036761;28;20111;-57
2022/06/28 07:42:44;;;;;;;3.35;2.05;;;;;;;16.34;67.12;100525.03;5037110;28;20052;-57
2022/06/28 07:45:28;;;;;;;5.78;2.08;;;;;;;16.35;67.25;100519.78;5037033;28;20092;-57
2022/06/28 07:48:12;;;;;;;;;;;;;;;16.33;67.08;100524.16;5022356;28;20048;-55
2022/06/28 07:53:59;;;;;;;3.75;2.00;;;;;;;16.35;67.25;100517.19;5037235;28;20075;-55
2022/06/28 07:56:43;;;;;;;4.43;2.13;;;;;;;16.36;67.28;100521.53;5037287;28;20124;-56
2022/06/28 07:59:26;;;;;;;3.75;1.98;;;;;;;16.36;67.60;100516.31;5036432;28;20064;-56
2022/06/28 08:02:10;;;;;;;6.18;2.72;;;;;;;16.36;67.28;100513.69;5021884;28;20060;-56
2022/06/28 08:04:55;;;;;;;7.10;2.30;;;;;;;16.36;67.37;100504.97;5036444;28;20051;-56
2022/06/28 08:07:40;;;;;;;6.07;2.50;;;;;;;16.38;67.33;100513.69;5036972;28;20419;-55
2022/06/28 08:10:24;;;;;;;4.80;2.00;;;;;;;16.37;67.20;100510.22;5021667;28;20049;-55
2022/06/28 08:13:12;;;;;;;7.68;3.60;;;;;;;16.39;67.26;100499.72;5021624;28;20179;-56
2022/06/28 08:15:58;;;;;;;4.55;2.03;;;;;;;16.39;67.29;100498.00;5021368;28;20109;-56
2022/06/28 08:18:42;;;;;;;5.40;2.13;;;;;;;16.40;67.31;100496.25;5036099;28;20102;-56
2022/06/28 08:21:26;;;;;;;6.30;2.65;;;;;;;16.41;67.36;100501.50;5036454;28;20455;-56
2022/06/28 08:24:10;;;;;;;5.32;2.80;;;;;;;16.41;67.03;100493.66;5036446;28;20056;-56
2022/06/28 08:26:54;;;;;;;4.43;2.22;;;;;;;16.41;67.36;100495.38;5036300;28;20111;-56
2022/06/28 08:29:41;;;;;;;6.57;2.38;;;;;;;16.43;67.13;100493.63;5035801;28;20052;-56
2022/06/28 08:32:28;;;;;;;6.88;2.80;;;;;;;16.44;67.39;100493.63;5021423;28;20104;-57
2022/06/28 08:35:12;;;;;;;5.15;2.38;;;;;;;16.47;67.29;100487.53;5036280;28;20404;-56
2022/06/28 08:37:56;;;;;;;4.85;2.25;;;;;;;16.47;67.36;100481.41;5035575;28;20045;-55
2022/06/28 08:40:40;;;;;;;4.70;2.72;;;;;;;16.47;67.31;100477.06;5036039;28;20174;-56
2022/06/28 08:43:25;;;;;;;;;;;;;;;16.48;67.43;100483.16;5036731;28;20397;-56
2022/06/28 08:46:09;;;;;;;5.80;2.85;;;;;;;16.47;67.40;100478.81;5021230;28;19967;-55
2022/06/28 08:49:01;;;;;;;5.70;2.38;;;;;;;16.48;67.30;100470.97;5036115;28;20091;-55
2022/06/28 08:51:46;;;;;;;4.50;2.47;;;;;;;16.50;67.28;100473.56;5020569;28;20079;-55
2022/06/28 08:54:32;;;;;;;5.60;2.63;;;;;;;16.51;67.34;100467.47;5021338;28;20507;-55
2022/06/28 08:57:18;;;;;;;4.10;2.53;;;;;;;16.52;67.46;100469.22;5035807;28;20417;-56
2022/06/28 09:00:07;;;;;;;5.95;2.67;;;;;;;16.55;67.32;100463.97;5020711;28;20052;-56
2022/06/28 09:02:52;;;;;;;5.45;2.70;;;;;;;16.56;67.27;100458.72;5020488;28;20061;-56
2022/06/28 09:05:36;;;;;;;3.70;2.28;;;;;;;16.58;67.19;100454.38;5020459;28;20042;-55
2022/06/28 09:08:23;;;;;;;6.10;2.38;;;;;;;16.60;67.17;100459.59;5035790;28;20132;-56
2022/06/28 09:11:07;;;;;;;7.72;2.53;;;;;;;16.62;67.30;100450.00;5035627;28;20064;-55
2022/06/28 09:13:51;;;;;;;3.85;2.00;;;;;;;16.63;67.18;100441.28;5035652;28;20099;-55
2022/06/28 09:16:36;;;;;;;4.00;2.40;;;;;;;16.66;67.02;100440.41;5035421;28;20076;-58
2022/06/28 09:20:08;;;;;;;3.95;1.98;;;;;;;16.69;66.99;100443.00;5035472;28;20103;-55
2022/06/28 09:22:52;;;;;;;5.50;2.28;;;;;;;16.69;67.19;100436.03;5034914;28;20056;-59
2022/06/28 09:25:36;;;;;;;4.45;2.58;;;;;;;16.70;67.00;100435.16;5035290;28;20412;-57
2022/06/28 09:28:27;;;;;;;5.28;2.30;;;;;;;16.71;67.25;100431.66;5035370;28;20453;-57
2022/06/28 09:31:15;;;;;;;3.90;2.03;;;;;;;16.73;67.21;100422.06;5035086;28;20072;-57
2022/06/28 09:34:05;;;;;;;5.78;1.92;;;;;;;16.72;67.14;100428.19;5020441;28;20072;-57
2022/06/28 09:36:55;;;;;;;5.68;1.98;;;;;;;16.77;67.16;100424.66;5019866;28;20144;-56
2022/06/28 09:39:46;;;;;;;6.72;2.15;;;;;;;16.76;66.96;100421.19;5034965;28;20072;-57
2022/06/28 09:42:30;;;;;;;4.57;1.70;;;;;;;16.78;66.79;100413.31;5034825;28;20076;-57
2022/06/28 09:45:16;;;;;;;3.67;2.20;;;;;;;16.80;66.77;100415.06;5035037;28;20484;-57
2022/06/28 09:48:01;;;;;;;3.47;1.58;;;;;;;16.82;67.11;100421.13;5019180;28;20075;-58
2022/06/28 09:50:47;;;;;;;7.63;1.95;;;;;;;16.83;66.85;100419.41;5019645;28;20103;-57
2022/06/28 09:53:34;;;;;;;3.55;2.28;;;;;;;16.83;66.95;100417.66;5019642;28;20048;-57
2022/06/28 09:56:21;;;;;;;2.70;1.63;;;;;;;16.84;66.88;100405.44;5019960;28;20060;-57
2022/06/28 09:59:06;;;;;;;5.20;1.88;;;;;;;16.84;66.96;100397.59;5019247;28;20084;-57
2022/06/28 10:01:52;;;;;;;3.60;2.00;;;;;;;16.84;66.73;100395.81;5019574;28;20056;-57
2022/06/28 10:04:37;;;;;;;4.18;1.83;;;;;;;16.84;67.00;100398.44;5034332;28;20103;-57
2022/06/28 10:07:23;;;;;;;6.18;2.38;;;;;;;16.86;66.78;100394.06;5034247;28;20175;-57
2022/06/28 10:10:09;;;;;;;4.63;1.90;;;;;;;16.87;66.84;100392.34;5019338;28;20083;-57
2022/06/28 10:16:07;;;;;;;4.72;1.90;;;;;;;16.88;66.81;100373.16;5034156;28;20092;-57
2022/06/28 10:18:51;;;;;;;2.53;2.00;;;;;;;16.87;66.81;100369.66;5018947;28;20041;-57
2022/06/28 10:21:54;;;;;;;2.72;1.80;;;;;;;16.88;66.93;100368.78;5034402;28;20140;-57
2022/06/28 10:24:53;;;;;;;2.42;1.83;;;;;;;16.90;66.88;100371.38;5019069;28;20049;-57
2022/06/28 10:27:47;;;;;;;4.88;1.77;;;;;;;16.90;67.04;100368.75;5018785;28;20570;-57
2022/06/28 10:30:31;;;;;;;3.92;1.80;;;;;;;16.91;66.96;100365.25;5019317;28;20045;-56
2022/06/28 10:33:15;;;;;;;3.15;1.90;;;;;;;16.92;66.68;100364.38;5018780;28;20485;-55
2022/06/28 10:36:12;;;;;;;4.40;2.30;;;;;;;16.92;66.88;100353.91;5019446;28;20389;-57
2022/06/28 10:39:08;;;;;;;4.88;2.13;;;;;;;16.90;66.74;100353.03;5018962;28;20558;-56
2022/06/28 10:41:59;;;;;;;4.10;1.92;;;;;;;16.90;66.98;100350.44;5019050;28;20401;-56
2022/06/28 10:44:45;;;;;;;3.95;2.08;;;;;;;16.90;66.93;100353.94;5033431;28;20564;-55
2022/06/28 10:47:29;;;;;;;4.97;2.00;;;;;;;16.93;66.77;100345.19;5019045;28;20075;-55
2022/06/28 10:50:15;;;;;;;3.03;1.95;;;;;;;16.91;66.87;100336.47;5018851;28;20456;-55
2022/06/28 10:53:00;;;;;;;3.42;2.00;;;;;;;16.92;66.86;100335.59;5033392;28;20072;-55
2022/06/28 10:56:11;;;;;;;2.38;1.70;;;;;;;16.93;67.07;100337.31;5018815;28;20578;-55
2022/06/28 10:59:02;;;;;;;6.13;2.00;;;;;;;16.93;66.87;100328.63;5018626;28;20045;-55
2022/06/28 11:01:46;;;;;;;4.55;1.88;;;;;;;16.93;66.66;100328.63;5018475;28;20044;-56
2022/06/28 11:04:31;;;;;;;3.95;1.92;;;;;;;16.94;66.22;100330.38;5033495;28;20071;-55
2022/06/28 11:07:25;;;;;;;2.70;1.48;;;;;;;16.95;66.59;100325.13;5018350;28;20129;-55
2022/06/28 11:10:16;;;;;;;2.53;1.60;;;;;;;16.96;66.41;100313.78;5018682;28;20052;-55
2022/06/28 11:13:22;;;;;;;4.00;2.03;;;;;;;16.97;66.61;100307.69;5033110;28;20420;-55
2022/06/28 11:16:08;;;;;;;4.70;2.10;;;;;;;16.99;66.59;100308.53;5018245;28;20052;-57
2022/06/28 11:19:08;;;;;;;3.45;1.70;;;;;;;16.99;66.27;100300.69;5018502;28;20080;-57
2022/06/28 11:21:55;;;;;;;5.25;2.35;;;;;;;17.01;66.36;100298.94;5033204;28;20052;-57
2022/06/28 11:24:44;;;;;;;3.95;1.90;;;;;;;17.02;66.21;100297.16;5018288;28;20044;-57
2022/06/28 11:27:29;;;;;;;6.10;1.85;;;;;;;17.02;66.31;100297.16;5033099;28;20120;-57
2022/06/28 11:30:15;;;;;;;4.45;2.08;;;;;;;17.02;66.31;100290.19;5018607;28;20102;-56
2022/06/28 11:32:59;;;;;;;2.78;1.90;;;;;;;17.03;66.20;100289.31;5033275;28;20420;-57
2022/06/28 11:35:43;;;;;;;4.38;2.10;;;;;;;17.04;66.26;100290.19;5033324;28;20051;-56
2022/06/28 11:38:27;;;;;;;2.67;1.83;;;;;;;17.03;66.07;100285.81;5033101;28;20072;-57
2022/06/28 11:41:11;;;;;;;3.60;2.08;;;;;;;17.04;66.16;100287.56;5033019;28;20138;-57
2022/06/28 11:43:59;;;;;;;7.35;2.03;;;;;;;17.05;66.05;100284.06;5033317;28;20040;-56
2022/06/28 11:46:48;;;;;;;4.97;1.90;;;;;;;17.09;66.16;100283.16;5017995;28;20091;-56
2022/06/28 11:49:34;;;;;;;3.08;1.80;;;;;;;17.11;66.14;100283.16;5018127;28;20117;-57
2022/06/28 11:52:18;;;;;;;5.53;2.22;;;;;;;17.12;65.91;100275.31;5032878;28;20103;-57
2022/06/28 11:55:02;;;;;;;3.50;2.03;;;;;;;17.13;65.73;100270.91;5018182;28;20098;-56
2022/06/28 11:58:17;;;;;;;5.30;2.00;;;;;;;17.13;66.04;100266.53;5017854;28;20059;-57
2022/06/28 12:01:18;;;;;;;2.75;2.00;;;;;;;17.14;65.95;100275.28;5032853;28;20088;-57
2022/06/28 12:04:06;;;;;;;3.85;2.38;;;;;;;17.15;65.90;100271.78;5017897;28;20520;-57
2022/06/28 12:06:52;;;;;;;6.47;2.53;;;;;;;17.16;65.91;100263.03;5033069;28;20565;-57
2022/06/28 12:09:46;;;;;;;3.80;2.13;;;;;;;17.18;65.94;100258.66;5018290;28;20057;-57
2022/06/28 12:12:39;;;;;;;4.30;2.05;;;;;;;17.20;65.65;100265.63;5020485;28;20515;-56
2022/06/28 12:15:31;;;;;;;3.35;2.13;;;;;;;17.22;65.79;100259.50;5036505;28;20076;-57
2022/06/28 12:18:15;;;;;;;6.88;2.50;;;;;;;17.22;65.81;100252.50;5021438;28;20048;-57
2022/06/28 12:20:59;;;;;;;4.18;2.17;;;;;;;17.20;65.80;100252.53;5036201;28;20073;-56
2022/06/28 12:23:51;;;;;;;3.47;2.10;;;;;;;17.22;65.90;100249.88;5036207;28;20044;-57
2022/06/28 12:26:48;;;;;;;3.67;1.95;;;;;;;17.21;65.76;100248.13;5036583;28;20107;-57
2022/06/28 12:29:38;;;;;;;6.80;2.03;;;;;;;17.22;65.61;100246.41;5036327;28;20573;-57
2022/06/28 12:32:22;;;;;;;4.35;1.83;;;;;;;17.20;65.81;100243.81;5036450;28;20052;-56
2022/06/28 12:35:13;;;;;;;4.15;1.90;;;;;;;17.20;65.69;100239.44;5036318;28;20096;-56
2022/06/28 12:37:57;;;;;;;4.97;2.13;;;;;;;17.19;65.62;100242.06;5020929;28;20045;-57
2022/06/28 12:40:41;;;;;;;3.97;1.95;;;;;;;17.21;65.52;100245.53;5036157;28;20523;-57
2022/06/28 12:43:30;;;;;;;4.93;1.90;;;;;;;17.22;65.57;100244.66;5036027;28;20550;-56
2022/06/28 12:46:17;;;;;;;5.70;1.65;;;;;;;17.22;65.63;100231.56;5021420;28;20103;-57
2022/06/28 12:49:04;;;;;;;5.22;1.90;;;;;;;17.22;65.45;100228.94;5035711;28;20047;-57
2022/06/28 12:51:49;;;;;;;3.45;1.80;;;;;;;17.23;65.58;100232.44;5036161;28;20055;-56
2022/06/28 12:54:33;;;;;;;3.10;1.83;;;;;;;17.23;65.60;100233.28;5021055;28;20044;-55
2022/06/28 12:57:17;;;;;;;4.28;1.83;;;;;;;17.26;65.59;100232.41;5035918;28;20048;-55
2022/06/28 13:00:03;;;;;;;3.13;1.67;;;;;;;17.27;65.32;100226.28;5035268;28;20088;-55
2022/06/28 13:02:49;;;;;;;3.72;1.85;;;;;;;17.27;65.45;100221.91;5035273;28;20570;-55
2022/06/28 13:05:34;;;;;;;3.15;2.10;;;;;;;17.29;65.42;100214.03;5021051;28;20061;-55
2022/06/28 13:08:18;;;;;;;16.88;2.53;;;;;;;17.31;65.11;100217.50;5036036;28;20044;-55